Time;durP1;ratioP1;P1;durP2;ratioP2;P2;SDS_P1;SDS_P2;PMS_P1;PMS_P2;Temp;Humidity;BMP_temperature;BMP_pressure;BME280_temperature;BME280_humidity;BME280_pressure;Samples;Min_cycle;Max_cycle;Signal;HPM_P1;HPM_P2
2022/04/24 00:00:24;;;;;;;2.83;2.27;;;17.40;63.80;;;;;;5206116;28;20224;-61
2022/04/24 00:03:17;;;;;;;2.60;2.23;;;17.40;63.80;;;;;;5205781;28;20194;-60
2022/04/24 00:06:09;;;;;;;2.83;2.13;;;17.30;63.80;;;;;;5206078;28;20677;-61
2022/04/24 00:09:02;;;;;;;3.37;2.30;;;17.30;63.80;;;;;;5205993;28;20200;-60
2022/04/24 00:11:54;;;;;;;2.77;2.20;;;17.30;63.80;;;;;;5205724;28;20202;-61
2022/04/24 00:14:48;;;;;;;2.50;2.30;;;17.30;63.80;;;;;;5206003;28;20214;-61
2022/04/24 00:17:40;;;;;;;3.10;2.30;;;17.30;63.80;;;;;;5205970;28;20205;-61
2022/04/24 00:20:32;;;;;;;2.70;2.10;;;17.30;63.80;;;;;;5196481;28;20702;-61
2022/04/24 00:23:24;;;;;;;2.43;2.23;;;17.30;63.80;;;;;;5197098;28;20217;-61
2022/04/24 00:26:16;;;;;;;2.33;2.03;;;17.30;63.80;;;;;;5198272;28;20194;-61
2022/04/24 00:29:09;;;;;;;3.07;2.27;;;17.30;63.70;;;;;;5204460;28;20220;-61
2022/04/24 00:32:02;;;;;;;2.20;2.00;;;17.30;63.80;;;;;;5205448;28;20229;-61
2022/04/24 00:34:54;;;;;;;2.40;2.20;;;17.30;63.70;;;;;;5205245;28;20217;-60
2022/04/24 00:37:46;;;;;;;3.00;2.30;;;17.30;63.70;;;;;;5198295;28;20232;-61
2022/04/24 00:40:38;;;;;;;2.03;1.83;;;17.30;63.70;;;;;;5186118;28;20225;-61
2022/04/24 00:43:30;;;;;;;3.37;2.10;;;17.30;63.70;;;;;;5185669;28;20195;-61
2022/04/24 00:46:40;;;;;;;2.40;2.20;;;17.30;63.70;;;;;;5194472;28;20194;-61
2022/04/24 00:49:34;;;;;;;3.20;2.10;;;17.30;63.70;;;;;;5201116;28;20704;-61
2022/04/24 00:52:26;;;;;;;2.77;2.00;;;17.30;63.70;;;;;;5204758;28;20204;-62
2022/04/24 00:55:20;;;;;;;2.10;1.90;;;17.30;63.80;;;;;;5184810;28;20690;-62
2022/04/24 00:58:12;;;;;;;2.70;2.13;;;17.30;63.70;;;;;;5184347;28;20265;-62
2022/04/24 01:01:04;;;;;;;2.37;2.00;;;17.30;63.80;;;;;;5184646;28;20228;-62
2022/04/24 01:04:01;;;;;;;2.23;1.93;;;17.30;63.80;;;;;;5184244;28;20195;-62
2022/04/24 01:06:54;;;;;;;2.60;2.20;;;17.30;63.70;;;;;;5184902;28;20198;-60
2022/04/24 01:09:46;;;;;;;2.97;2.00;;;17.30;63.70;;;;;;5184158;28;20219;-61
2022/04/24 01:12:38;;;;;;;2.97;2.10;;;17.30;63.70;;;;;;5184069;28;20191;-60
2022/04/24 01:15:31;;;;;;;1.90;1.70;;;17.30;63.70;;;;;;5184420;28;20252;-62
2022/04/24 01:18:23;;;;;;;3.03;1.93;;;17.30;63.70;;;;;;5184561;28;20237;-60
2022/04/24 01:21:17;;;;;;;2.97;2.00;;;17.30;63.70;;;;;;5194191;28;20566;-62
2022/04/24 01:24:10;;;;;;;2.00;1.63;;;17.30;63.70;;;;;;5204492;28;20194;-62
2022/04/24 01:27:02;;;;;;;2.20;1.90;;;17.30;63.60;;;;;;5205250;28;20577;-62
2022/04/24 01:29:54;;;;;;;1.70;1.60;;;17.30;63.60;;;;;;5191238;28;20221;-61
2022/04/24 01:32:46;;;;;;;2.00;1.80;;;17.30;63.70;;;;;;5197486;28;20692;-61
2022/04/24 01:35:38;;;;;;;2.17;1.97;;;17.30;63.70;;;;;;5204424;28;20685;-60
2022/04/24 01:38:33;;;;;;;2.40;2.10;;;17.30;63.50;;;;;;5204584;28;20577;-61
2022/04/24 01:41:25;;;;;;;1.87;1.67;;;17.30;63.60;;;;;;5203161;28;20205;-61
2022/04/24 01:44:17;;;;;;;2.33;1.83;;;17.30;63.60;;;;;;5204335;28;20193;-61
2022/04/24 01:47:09;;;;;;;2.80;2.10;;;17.30;63.60;;;;;;5204375;28;20200;-61
2022/04/24 01:50:01;;;;;;;2.00;1.90;;;17.30;63.60;;;;;;5191685;28;20223;-62
2022/04/24 01:52:53;;;;;;;1.83;1.70;;;17.30;63.60;;;;;;5203589;28;20202;-61
2022/04/24 01:55:47;;;;;;;2.47;1.90;;;17.30;63.60;;;;;;5204303;28;20209;-61
2022/04/24 01:58:40;;;;;;;2.10;1.90;;;17.30;63.60;;;;;;5203701;28;20921;-61
2022/04/24 02:01:32;;;;;;;1.80;1.63;;;17.30;63.50;;;;;;5204155;28;20619;-61
2022/04/24 02:04:24;;;;;;;2.33;1.70;;;17.30;63.60;;;;;;5203408;28;20197;-61
2022/04/24 02:07:16;;;;;;;1.70;1.43;;;17.30;63.60;;;;;;5204782;28;20668;-61
2022/04/24 02:10:08;;;;;;;2.00;1.80;;;17.30;63.50;;;;;;5206123;28;20260;-62
2022/04/24 02:13:02;;;;;;;1.43;1.33;;;17.30;63.50;;;;;;5208518;28;20198;-61
2022/04/24 02:15:54;;;;;;;1.60;1.50;;;17.30;63.50;;;;;;5208101;28;20811;-61
2022/04/24 02:18:46;;;;;;;2.30;1.70;;;17.30;63.50;;;;;;5208128;28;20198;-61
2022/04/24 02:21:38;;;;;;;2.10;1.80;;;17.30;63.50;;;;;;5201544;28;20193;-61
2022/04/24 02:24:30;;;;;;;2.40;1.77;;;17.30;63.60;;;;;;5207109;28;20741;-61
2022/04/24 02:27:22;;;;;;;1.53;1.43;;;17.30;63.50;;;;;;5187492;28;20194;-61
2022/04/24 02:30:15;;;;;;;1.53;1.43;;;17.40;63.70;;;;;;5199429;28;20221;-61
2022/04/24 02:33:09;;;;;;;1.73;1.63;;;17.30;63.60;;;;;;5205873;28;20564;-61
2022/04/24 02:36:01;;;;;;;1.90;1.70;;;17.30;63.50;;;;;;5207102;28;20705;-62
2022/04/24 02:38:53;;;;;;;1.60;1.50;;;17.30;63.60;;;;;;5207213;28;20665;-61
2022/04/24 02:41:45;;;;;;;1.83;1.53;;;17.30;63.50;;;;;;5206739;28;20197;-61
2022/04/24 02:44:37;;;;;;;1.97;1.57;;;17.40;63.60;;;;;;5207608;28;20189;-62
2022/04/24 02:47:30;;;;;;;1.80;1.70;;;17.30;63.50;;;;;;5206351;28;20661;-61
2022/04/24 02:50:23;;;;;;;1.50;1.40;;;17.30;63.50;;;;;;5190536;28;20225;-61
2022/04/24 02:53:16;;;;;;;1.60;1.50;;;17.30;63.50;;;;;;5187967;28;20206;-61
2022/04/24 02:56:08;;;;;;;1.93;1.73;;;17.30;64.10;;;;;;5205074;28;20312;-61
2022/04/24 02:59:00;;;;;;;1.97;1.50;;;17.30;63.50;;;;;;5207198;28;20198;-61
2022/04/24 03:01:52;;;;;;;1.90;1.60;;;17.30;63.50;;;;;;5207159;28;20198;-61
2022/04/24 03:04:46;;;;;;;1.50;1.40;;;17.30;63.50;;;;;;5207535;28;20190;-61
2022/04/24 03:07:38;;;;;;;2.43;1.70;;;17.30;63.50;;;;;;5207407;28;20197;-61
2022/04/24 03:10:30;;;;;;;1.97;1.77;;;17.30;63.50;;;;;;5206238;28;20693;-61
2022/04/24 03:13:22;;;;;;;2.00;1.60;;;17.40;63.50;;;;;;5206709;28;20198;-60
2022/04/24 03:16:15;;;;;;;2.83;1.63;;;17.30;63.40;;;;;;5206371;28;20569;-61
2022/04/24 03:19:07;;;;;;;1.90;1.40;;;17.30;63.40;;;;;;5206293;28;20194;-61
2022/04/24 03:22:00;;;;;;;1.60;1.50;;;17.30;63.40;;;;;;5209119;23;20733;-64
2022/04/24 03:24:52;;;;;;;1.40;1.30;;;17.30;63.40;;;;;;5185558;28;20198;-66
2022/04/24 03:27:44;;;;;;;1.70;1.60;;;17.30;63.40;;;;;;5181987;28;20202;-66
2022/04/24 03:30:37;;;;;;;1.90;1.63;;;17.30;63.40;;;;;;5189777;28;20217;-68
2022/04/24 03:33:29;;;;;;;1.80;1.70;;;17.30;63.50;;;;;;5206135;28;20200;-67
2022/04/24 03:36:21;;;;;;;1.50;1.40;;;17.30;63.50;;;;;;5207168;28;20194;-67
2022/04/24 03:39:15;;;;;;;1.60;1.50;;;17.30;63.50;;;;;;5186479;28;20190;-66
2022/04/24 03:42:08;;;;;;;1.77;1.50;;;17.30;63.50;;;;;;5186648;28;20225;-66
2022/04/24 03:45:01;;;;;;;1.60;1.40;;;17.30;63.50;;;;;;5186127;28;20662;-66
2022/04/24 03:47:53;;;;;;;1.73;1.60;;;17.30;63.50;;;;;;5186126;28;20201;-66
2022/04/24 03:50:45;;;;;;;1.57;1.40;;;17.30;63.50;;;;;;5191413;28;20217;-66
2022/04/24 03:53:37;;;;;;;1.60;1.50;;;17.30;63.40;;;;;;5206978;28;20196;-66
2022/04/24 03:56:31;;;;;;;1.83;1.50;;;17.30;63.40;;;;;;5206520;28;20200;-66
2022/04/24 03:59:23;;;;;;;1.97;1.30;;;17.30;63.40;;;;;;5206466;28;20201;-66
2022/04/24 04:02:16;;;;;;;1.40;1.30;;;17.30;63.40;;;;;;5201705;28;20596;-66
2022/04/24 04:05:08;;;;;;;2.53;1.20;;;17.30;63.40;;;;;;5206034;28;20208;-67
2022/04/24 04:08:01;;;;;;;1.50;1.40;;;17.30;63.30;;;;;;5205717;28;20228;-66
2022/04/24 04:10:54;;;;;;;1.43;1.33;;;17.30;63.40;;;;;;5206100;28;20218;-66
2022/04/24 04:13:47;;;;;;;1.53;1.27;;;17.30;63.40;;;;;;5205465;28;20251;-66
2022/04/24 04:16:40;;;;;;;1.63;1.53;;;17.40;63.50;;;;;;5205987;28;20191;-66
2022/04/24 04:19:32;;;;;;;1.87;1.50;;;17.40;63.50;;;;;;5206036;28;20224;-67
2022/04/24 04:22:24;;;;;;;1.30;1.20;;;17.30;63.40;;;;;;5205669;28;20229;-66
2022/04/24 04:25:17;;;;;;;1.47;1.37;;;17.30;63.40;;;;;;5205438;28;20573;-67
2022/04/24 04:28:09;;;;;;;1.40;1.30;;;17.30;63.40;;;;;;5198393;28;20589;-66
2022/04/24 04:31:02;;;;;;;1.93;1.20;;;17.30;63.40;;;;;;5205172;28;20218;-65
2022/04/24 04:33:55;;;;;;;1.40;1.20;;;17.30;63.40;;;;;;5201736;28;20212;-66
2022/04/24 04:36:47;;;;;;;1.50;1.40;;;17.30;63.40;;;;;;5194083;28;20194;-66
2022/04/24 04:39:39;;;;;;;1.50;1.40;;;17.30;63.40;;;;;;5205262;28;20576;-67
2022/04/24 04:42:31;;;;;;;1.57;1.47;;;17.30;63.30;;;;;;5204799;28;20209;-66
2022/04/24 04:45:24;;;;;;;1.20;1.10;;;17.30;63.40;;;;;;5205757;28;20196;-67
2022/04/24 04:48:18;;;;;;;1.20;1.10;;;17.30;63.40;;;;;;5203921;28;20283;-66
2022/04/24 04:51:10;;;;;;;1.30;1.20;;;17.30;63.40;;;;;;5204300;28;20634;-67
2022/04/24 04:54:02;;;;;;;1.23;1.13;;;17.30;63.30;;;;;;5194873;28;20194;-66
2022/04/24 04:56:54;;;;;;;1.57;1.27;;;17.30;63.40;;;;;;5204900;28;20206;-66
2022/04/24 04:59:46;;;;;;;1.33;1.23;;;17.30;63.30;;;;;;5204756;28;20581;-66
2022/04/24 05:02:39;;;;;;;2.03;1.40;;;17.30;63.30;;;;;;5204085;28;20259;-66
2022/04/24 05:05:32;;;;;;;0.93;0.93;;;17.30;63.40;;;;;;5204506;28;20200;-67
2022/04/24 05:08:24;;;;;;;1.40;1.30;;;17.30;63.30;;;;;;5204520;28;20208;-66
2022/04/24 05:11:16;;;;;;;1.77;1.10;;;17.30;63.40;;;;;;5204039;28;20214;-66
2022/04/24 05:14:08;;;;;;;1.20;1.10;;;17.30;63.90;;;;;;5204399;28;20669;-67
2022/04/24 05:17:01;;;;;;;1.40;1.30;;;17.40;63.30;;;;;;5204158;28;20616;-67
2022/04/24 05:19:53;;;;;;;1.10;1.00;;;17.40;63.30;;;;;;5200247;28;20203;-67
2022/04/24 05:22:46;;;;;;;1.07;1.00;;;17.40;63.30;;;;;;5200885;28;20209;-67
2022/04/24 05:25:39;;;;;;;1.57;1.30;;;17.40;63.30;;;;;;5200622;28;20194;-67
2022/04/24 05:28:31;;;;;;;1.20;1.10;;;17.40;63.30;;;;;;5201444;28;20591;-67
2022/04/24 05:31:23;;;;;;;1.57;1.40;;;17.40;63.30;;;;;;5203608;28;20261;-66
2022/04/24 05:34:15;;;;;;;1.20;1.10;;;17.40;63.20;;;;;;5203805;28;20197;-67
2022/04/24 05:37:07;;;;;;;2.73;1.23;;;17.40;63.10;;;;;;5201325;28;20196;-67
2022/04/24 05:40:01;;;;;;;1.20;1.10;;;17.40;63.10;;;;;;5202567;28;20193;-67
2022/04/24 05:42:54;;;;;;;1.20;1.10;;;17.40;63.10;;;;;;5201616;28;20194;-67
2022/04/24 05:45:46;;;;;;;1.13;1.03;;;17.40;63.10;;;;;;5204025;28;20197;-67
2022/04/24 05:48:39;;;;;;;1.27;1.00;;;17.40;63.00;;;;;;5204552;28;20576;-67
2022/04/24 05:51:31;;;;;;;1.53;1.20;;;17.40;63.10;;;;;;5203568;28;20285;-67
2022/04/24 05:54:23;;;;;;;1.30;1.20;;;17.40;63.20;;;;;;5197472;28;20597;-66
2022/04/24 05:57:16;;;;;;;1.37;1.23;;;17.40;63.20;;;;;;5194525;28;20205;-67
2022/04/24 06:00:11;;;;;;;2.10;1.50;;;17.40;63.20;;;;;;5204407;28;20259;-67
2022/04/24 06:03:03;;;;;;;2.13;1.30;;;17.40;63.20;;;;;;5203487;28;20194;-66
2022/04/24 06:05:55;;;;;;;2.07;1.17;;;17.40;63.20;;;;;;5203712;28;20595;-67
2022/04/24 06:08:47;;;;;;;1.43;1.20;;;17.40;63.10;;;;;;5202801;28;20196;-67
2022/04/24 06:11:41;;;;;;;1.90;1.20;;;17.50;63.20;;;;;;5202906;28;20210;-67
2022/04/24 06:14:34;;;;;;;1.63;1.20;;;17.40;63.20;;;;;;5203112;28;20205;-67
2022/04/24 06:17:26;;;;;;;2.67;1.40;;;17.50;63.20;;;;;;5203232;28;20657;-67
2022/04/24 06:20:19;;;;;;;1.70;1.03;;;17.50;63.20;;;;;;5202094;28;20271;-67
2022/04/24 06:23:11;;;;;;;2.03;1.07;;;17.50;63.10;;;;;;5201778;28;20240;-67
2022/04/24 06:26:03;;;;;;;1.23;1.13;;;17.40;63.10;;;;;;5202113;28;20198;-65
2022/04/24 06:28:55;;;;;;;2.03;1.20;;;17.50;63.20;;;;;;5203834;28;20198;-66
2022/04/24 06:31:49;;;;;;;2.13;1.60;;;17.50;63.20;;;;;;5190103;28;20225;-67
2022/04/24 06:34:41;;;;;;;4.80;1.60;;;17.50;63.20;;;;;;5201803;28;20208;-67
2022/04/24 06:37:33;;;;;;;2.87;1.63;;;17.50;63.20;;;;;;5203050;28;20204;-67
2022/04/24 06:40:27;;;;;;;2.10;1.43;;;17.50;63.20;;;;;;5197677;28;20198;-67
2022/04/24 06:43:19;;;;;;;2.03;1.40;;;17.50;63.10;;;;;;5186277;28;20205;-65
2022/04/24 06:46:11;;;;;;;3.10;1.57;;;17.50;63.10;;;;;;5195677;28;20192;-67
2022/04/24 06:49:04;;;;;;;2.53;1.90;;;17.50;63.10;;;;;;5203574;28;20255;-66
2022/04/24 06:51:56;;;;;;;2.80;1.73;;;17.50;63.10;;;;;;5202922;28;20589;-66
2022/04/24 06:54:49;;;;;;;4.90;1.63;;;17.50;63.10;;;;;;5202306;28;20190;-67
2022/04/24 06:57:41;;;;;;;4.40;2.20;;;17.50;63.10;;;;;;5205719;28;20198;-66
2022/04/24 07:00:36;;;;;;;4.37;1.87;;;17.50;63.00;;;;;;5202721;28;20228;-67
2022/04/24 07:03:30;;;;;;;3.40;2.07;;;17.50;63.00;;;;;;5202367;28;20272;-67
2022/04/24 07:06:23;;;;;;;3.90;2.30;;;17.50;63.10;;;;;;5205069;28;20580;-66
2022/04/24 07:09:15;;;;;;;4.57;1.73;;;17.50;63.10;;;;;;5205649;28;20201;-67
2022/04/24 07:12:09;;;;;;;4.17;1.80;;;17.50;63.10;;;;;;5205922;28;20225;-67
2022/04/24 07:15:01;;;;;;;2.87;1.77;;;17.50;63.10;;;;;;5206963;28;20198;-66
2022/04/24 07:17:53;;;;;;;2.53;1.60;;;17.50;63.20;;;;;;5207250;28;20202;-67
2022/04/24 07:20:45;;;;;;;3.97;1.80;;;17.50;63.20;;;;;;5206337;28;20727;-67
2022/04/24 07:23:39;;;;;;;5.70;2.20;;;17.50;63.20;;;;;;5198168;28;20190;-67
2022/04/24 07:26:31;;;;;;;3.47;1.67;;;17.50;63.20;;;;;;5201721;28;20677;-67
2022/04/24 07:29:23;;;;;;;3.57;1.63;;;17.50;63.20;;;;;;5187021;28;20194;-67
2022/04/24 07:32:17;;;;;;;2.43;1.77;;;17.50;63.20;;;;;;5185229;28;20226;-66
2022/04/24 07:35:11;;;;;;;4.00;1.70;;;17.50;63.20;;;;;;5185282;28;20593;-66
2022/04/24 07:38:03;;;;;;;3.67;1.90;;;17.50;63.20;;;;;;5186708;28;20207;-65
2022/04/24 07:40:57;;;;;;;2.23;1.50;;;17.50;63.20;;;;;;5186184;28;20214;-67
2022/04/24 07:43:49;;;;;;;3.13;1.40;;;17.50;63.20;;;;;;5186602;28;20285;-67
2022/04/24 07:46:41;;;;;;;3.13;1.67;;;17.50;63.20;;;;;;5186425;28;20273;-66
2022/04/24 07:49:33;;;;;;;3.60;1.90;;;17.50;63.20;;;;;;5186383;28;20194;-67
2022/04/24 07:52:25;;;;;;;2.27;1.30;;;17.50;63.20;;;;;;5204259;28;20222;-66
2022/04/24 07:55:22;;;;;;;4.57;1.87;;;17.50;63.20;;;;;;5206342;28;20204;-67
2022/04/24 07:58:15;;;;;;;3.93;1.60;;;17.60;63.30;;;;;;5206100;28;20198;-67
2022/04/24 08:01:07;;;;;;;2.67;1.73;;;17.60;63.20;;;;;;5205295;28;20213;-66
2022/04/24 08:03:59;;;;;;;3.27;1.40;;;17.50;63.20;;;;;;5206265;28;20194;-66
2022/04/24 08:06:51;;;;;;;2.83;1.47;;;17.50;63.20;;;;;;5206207;28;20194;-66
2022/04/24 08:09:44;;;;;;;2.77;1.47;;;17.50;63.20;;;;;;5206611;28;20202;-67
2022/04/24 08:12:36;;;;;;;2.03;1.43;;;17.50;63.20;;;;;;5205138;28;20218;-66
2022/04/24 08:15:29;;;;;;;2.83;1.50;;;17.50;63.20;;;;;;5204211;28;20201;-68
2022/04/24 08:18:21;;;;;;;2.93;1.53;;;17.60;63.30;;;;;;5205987;28;20212;-66
2022/04/24 08:21:13;;;;;;;2.60;1.60;;;17.50;63.30;;;;;;5205733;28;20234;-67
2022/04/24 08:24:05;;;;;;;2.03;1.20;;;17.50;63.30;;;;;;5205731;28;20229;-66
2022/04/24 08:26:57;;;;;;;1.10;1.00;;;17.50;63.20;;;;;;5205581;28;20557;-66
2022/04/24 08:29:50;;;;;;;2.30;1.40;;;17.50;63.20;;;;;;5192196;28;20189;-67
2022/04/24 08:32:43;;;;;;;2.13;1.20;;;17.50;63.30;;;;;;5205595;28;20214;-67
2022/04/24 08:35:36;;;;;;;3.10;1.43;;;17.50;63.20;;;;;;5204958;28;20201;-67
2022/04/24 08:38:28;;;;;;;2.80;1.50;;;17.50;63.10;;;;;;5201021;28;20198;-67
2022/04/24 08:41:22;;;;;;;1.80;1.47;;;17.50;63.20;;;;;;5185496;28;20211;-66
2022/04/24 08:44:14;;;;;;;2.17;1.40;;;17.50;63.20;;;;;;5204433;28;20289;-66
2022/04/24 08:47:07;;;;;;;1.23;1.13;;;17.60;63.30;;;;;;5204466;28;20198;-67
2022/04/24 08:50:02;;;;;;;2.30;1.37;;;17.50;63.20;;;;;;5204393;28;20200;-67
2022/04/24 08:52:56;;;;;;;2.20;1.20;;;17.50;63.20;;;;;;5185409;28;20191;-67
2022/04/24 08:55:48;;;;;;;2.30;1.50;;;17.50;63.20;;;;;;5184800;28;20218;-67
2022/04/24 08:58:42;;;;;;;1.63;1.10;;;17.50;63.30;;;;;;5184949;28;20579;-66
2022/04/24 09:01:44;;;;;;;3.20;1.60;;;17.50;63.30;;;;;;5191295;28;20711;-66
2022/04/24 09:04:37;;;;;;;1.17;0.97;;;17.50;63.20;;;;;;5200362;28;20584;-67
2022/04/24 09:07:34;;;;;;;2.30;1.40;;;17.50;63.30;;;;;;5204516;28;20201;-67
2022/04/24 09:10:26;;;;;;;2.97;1.50;;;17.50;63.30;;;;;;5204369;28;20197;-66
2022/04/24 09:14:14;;;;;;;1.50;1.03;;;17.50;63.30;;;;;;5203863;28;20193;-66
2022/04/24 09:16:47;;;;;;;1.77;1.10;;;17.50;63.30;;;;;;5204063;28;20214;-67
2022/04/24 09:19:39;;;;;;;2.30;1.10;;;17.50;63.30;;;;;;5203895;28;20668;-66
2022/04/24 09:22:38;;;;;;;1.83;1.20;;;17.50;63.30;;;;;;5219499;23;20240;-62
2022/04/24 09:25:38;;;;;;;2.37;1.50;;;17.50;63.30;;;;;;5202102;28;20201;-61
2022/04/24 09:28:38;;;;;;;1.53;1.13;;;17.60;63.40;;;;;;5199791;28;20562;-62
2022/04/24 09:31:30;;;;;;;2.63;1.37;;;17.50;63.30;;;;;;5204160;28;20221;-61
2022/04/24 09:34:28;;;;;;;2.13;1.20;;;17.50;63.40;;;;;;5204507;28;20202;-62
2022/04/24 09:37:21;;;;;;;1.67;1.10;;;17.50;63.30;;;;;;5204497;28;20588;-61
2022/04/24 09:40:14;;;;;;;2.00;1.10;;;17.50;63.40;;;;;;5204473;28;20205;-62
2022/04/24 09:43:09;;;;;;;2.10;1.23;;;17.50;63.40;;;;;;5201101;28;20712;-62
2022/04/24 09:46:01;;;;;;;1.57;1.20;;;17.50;63.40;;;;;;5204726;28;20198;-62
2022/04/24 09:48:57;;;;;;;1.47;1.30;;;17.50;63.40;;;;;;5204256;28;20201;-61
2022/04/24 09:51:51;;;;;;;1.60;1.00;;;17.50;63.40;;;;;;5203905;28;20222;-61
2022/04/24 09:54:44;;;;;;;1.47;0.90;;;17.50;63.40;;;;;;5203742;28;20206;-61
2022/04/24 09:57:38;;;;;;;1.70;1.10;;;17.50;63.40;;;;;;5204507;28;20222;-61
2022/04/24 10:00:30;;;;;;;1.73;1.03;;;17.50;63.50;;;;;;5204232;28;20197;-61
2022/04/24 10:03:22;;;;;;;1.10;1.00;;;17.60;63.50;;;;;;5204093;28;20200;-61
2022/04/24 10:06:15;;;;;;;1.40;0.90;;;17.50;63.50;;;;;;5203981;28;20204;-61
2022/04/24 10:09:10;;;;;;;2.30;1.40;;;17.50;63.50;;;;;;5203580;28;20205;-61
2022/04/24 10:12:05;;;;;;;2.00;1.10;;;17.50;63.50;;;;;;5203896;28;20705;-61
2022/04/24 10:15:02;;;;;;;1.60;1.03;;;17.50;63.50;;;;;;5203283;28;20194;-61
2022/04/24 10:18:18;;;;;;;1.30;1.00;;;17.50;63.50;;;;;;5204344;28;20249;-62
2022/04/24 10:21:31;;;;;;;1.67;1.07;;;17.50;63.50;;;;;;5201375;28;20198;-62
2022/04/24 10:24:23;;;;;;;1.37;1.10;;;17.60;63.50;;;;;;5203842;28;20193;-62
2022/04/24 10:27:17;;;;;;;1.60;1.27;;;17.50;64.00;;;;;;5192866;28;20197;-62
2022/04/24 10:30:13;;;;;;;1.20;0.90;;;17.50;63.50;;;;;;5203124;28;20198;-61
2022/04/24 10:33:18;;;;;;;1.57;0.90;;;17.50;63.50;;;;;;5207616;28;20218;-61
2022/04/24 10:36:15;;;;;;;1.03;0.87;;;17.50;63.50;;;;;;5207535;28;20284;-62
2022/04/24 10:39:16;;;;;;;1.10;0.80;;;17.50;63.50;;;;;;5202801;28;20191;-61
2022/04/24 10:42:12;;;;;;;1.33;1.10;;;17.50;63.50;;;;;;5198666;28;20217;-61
2022/04/24 10:45:08;;;;;;;1.70;1.13;;;17.50;63.50;;;;;;5207723;28;20201;-61
2022/04/24 10:48:05;;;;;;;1.60;1.17;;;17.50;63.50;;;;;;5207695;28;20193;-61
2022/04/24 10:50:57;;;;;;;1.70;1.07;;;17.50;63.50;;;;;;5207312;28;20269;-62
2022/04/24 10:53:50;;;;;;;1.07;0.97;;;17.50;63.60;;;;;;5207657;28;20623;-61
2022/04/24 10:56:49;;;;;;;1.00;0.93;;;17.50;63.60;;;;;;5207199;28;20214;-61
2022/04/24 10:59:47;;;;;;;1.20;1.10;;;17.50;63.60;;;;;;5190692;28;20206;-61
2022/04/24 11:02:39;;;;;;;1.87;0.93;;;17.50;63.60;;;;;;5187685;28;20206;-62
2022/04/24 11:05:37;;;;;;;1.70;1.07;;;17.50;63.60;;;;;;5186847;28;20198;-61
2022/04/24 11:08:29;;;;;;;0.97;0.90;;;17.50;63.60;;;;;;5186468;28;20202;-62
2022/04/24 11:11:23;;;;;;;1.20;0.87;;;17.50;63.60;;;;;;5199748;28;20205;-61
2022/04/24 11:14:20;;;;;;;1.60;1.00;;;17.50;63.50;;;;;;5207555;28;20648;-62
2022/04/24 11:17:12;;;;;;;1.43;0.90;;;17.50;63.60;;;;;;5207014;28;20325;-61
2022/04/24 11:20:09;;;;;;;0.97;0.90;;;17.50;63.60;;;;;;5189523;28;20688;-62
2022/04/24 11:23:05;;;;;;;1.27;1.00;;;17.50;63.60;;;;;;5201595;28;20300;-62
2022/04/24 11:25:59;;;;;;;0.90;0.90;;;17.50;63.60;;;;;;5203552;28;20247;-61
2022/04/24 11:28:51;;;;;;;1.20;0.77;;;17.50;63.60;;;;;;5207034;28;20449;-62
2022/04/24 11:31:48;;;;;;;2.40;1.20;;;17.50;63.60;;;;;;5189899;28;20236;-61
2022/04/24 11:34:40;;;;;;;1.47;0.90;;;17.50;63.60;;;;;;5187521;28;20199;-61
2022/04/24 11:37:32;;;;;;;1.13;0.90;;;17.50;63.60;;;;;;5187428;28;20218;-62
2022/04/24 11:40:28;;;;;;;1.00;0.80;;;17.50;63.60;;;;;;5187378;28;20674;-61
2022/04/24 11:43:20;;;;;;;1.20;1.10;;;17.50;63.60;;;;;;5185969;28;20223;-62
2022/04/24 11:52:32;;;;;;;1.00;0.90;;;17.50;63.60;;;;;;5193584;28;20629;-62
2022/04/24 11:56:01;;;;;;;1.10;1.00;;;17.50;63.60;;;;;;5205829;28;20542;-62
2022/04/24 11:58:41;;;;;;;1.70;1.07;;;17.50;63.60;;;;;;5206755;28;20271;-62
2022/04/24 12:01:33;;;;;;;1.33;1.20;;;17.50;63.60;;;;;;5205684;28;20248;-62
2022/04/24 12:04:31;;;;;;;2.53;1.00;;;17.50;63.60;;;;;;5206562;28;20193;-62
2022/04/24 12:07:30;;;;;;;1.13;0.90;;;17.50;63.60;;;;;;5186129;28;20199;-61
2022/04/24 12:10:24;;;;;;;1.80;1.03;;;17.50;63.70;;;;;;5185533;28;20187;-61
2022/04/24 12:13:23;;;;;;;1.00;0.90;;;17.50;63.70;;;;;;5185882;28;20593;-61
2022/04/24 12:16:23;;;;;;;1.00;0.70;;;17.50;63.60;;;;;;5186353;28;20198;-61
2022/04/24 12:19:19;;;;;;;1.40;0.70;;;17.50;63.60;;;;;;5190603;28;20194;-61
2022/04/24 12:22:12;;;;;;;1.83;1.00;;;17.50;63.60;;;;;;5198532;28;20228;-62
2022/04/24 12:25:09;;;;;;;0.70;0.70;;;17.50;63.60;;;;;;5205586;28;20202;-62
2022/04/24 12:28:02;;;;;;;2.13;0.87;;;17.50;63.60;;;;;;5206872;28;20198;-62
2022/04/24 12:30:56;;;;;;;0.93;0.80;;;17.50;63.60;;;;;;5205485;28;20197;-62
2022/04/24 12:33:49;;;;;;;1.10;1.00;;;17.50;63.60;;;;;;5205658;28;20197;-61
2022/04/24 12:36:50;;;;;;;1.33;1.00;;;17.50;63.60;;;;;;5205391;28;20204;-62
2022/04/24 12:39:52;;;;;;;0.93;0.90;;;17.50;63.60;;;;;;5205535;28;20672;-61
2022/04/24 12:42:51;;;;;;;0.77;0.77;;;17.50;63.60;;;;;;5205219;28;20692;-61
2022/04/24 12:45:43;;;;;;;1.20;1.10;;;17.50;63.70;;;;;;5204445;28;20261;-61
2022/04/24 12:48:46;;;;;;;1.43;0.90;;;17.50;63.70;;;;;;5203333;28;20189;-61
2022/04/24 12:51:38;;;;;;;0.80;0.80;;;17.50;63.60;;;;;;5197252;28;20264;-62
2022/04/24 12:54:30;;;;;;;1.57;1.00;;;17.50;63.70;;;;;;5204670;28;20677;-62
2022/04/24 12:57:22;;;;;;;1.10;0.87;;;17.50;63.60;;;;;;5205436;28;20220;-62
2022/04/24 13:00:15;;;;;;;1.07;1.00;;;17.50;63.60;;;;;;5205024;28;20402;-61
2022/04/24 13:03:08;;;;;;;1.00;0.90;;;17.50;63.60;;;;;;5203316;28;20217;-61
2022/04/24 13:06:02;;;;;;;1.10;0.90;;;17.50;63.60;;;;;;5204860;28;20197;-62
2022/04/24 13:08:54;;;;;;;3.13;1.00;;;17.50;63.60;;;;;;5205058;28;20665;-61
2022/04/24 13:11:46;;;;;;;1.53;0.97;;;17.50;63.60;;;;;;5198380;28;20213;-61
2022/04/24 13:14:38;;;;;;;0.80;0.80;;;17.50;63.60;;;;;;5196358;28;20522;-62
2022/04/24 13:20:41;;;;;;;1.80;0.87;;;17.50;63.70;;;;;;5203500;28;20214;-61
2022/04/24 13:23:34;;;;;;;1.10;0.83;;;17.50;63.60;;;;;;5204883;28;20216;-61
2022/04/24 13:26:26;;;;;;;0.60;0.60;;;17.50;63.70;;;;;;5204619;28;20209;-62
2022/04/24 13:29:19;;;;;;;2.07;1.00;;;17.50;63.60;;;;;;5204534;28;20201;-61
2022/04/24 13:32:12;;;;;;;1.00;0.90;;;17.50;63.60;;;;;;5204302;28;20224;-62
2022/04/24 13:35:04;;;;;;;1.83;1.13;;;17.50;63.70;;;;;;5202459;28;20204;-61
2022/04/24 13:41:07;;;;;;;1.00;0.90;;;17.60;63.70;;;;;;5184950;28;20761;-62
2022/04/24 13:44:00;;;;;;;1.17;0.90;;;17.50;63.70;;;;;;5184692;28;20195;-62
2022/04/24 13:46:52;;;;;;;1.20;1.10;;;17.50;63.70;;;;;;5184787;28;20190;-61
2022/04/24 13:49:44;;;;;;;1.07;1.00;;;17.50;63.70;;;;;;5185030;28;20206;-62
2022/04/24 13:52:36;;;;;;;0.90;0.90;;;17.50;63.60;;;;;;5203555;28;20271;-61
2022/04/24 13:55:29;;;;;;;1.23;0.80;;;17.50;63.60;;;;;;5204495;28;20244;-62
2022/04/24 13:58:24;;;;;;;1.27;0.90;;;17.50;63.70;;;;;;5204673;28;20220;-62
2022/04/24 14:01:16;;;;;;;0.80;0.80;;;17.50;63.60;;;;;;5203808;28;20220;-62
2022/04/24 14:04:08;;;;;;;2.47;1.17;;;17.50;63.60;;;;;;5203478;28;20201;-62
2022/04/24 14:07:00;;;;;;;1.73;1.00;;;17.50;63.60;;;;;;5211299;28;20221;-61
2022/04/24 14:09:53;;;;;;;0.97;0.90;;;17.50;63.60;;;;;;5213149;28;20205;-62
2022/04/24 14:12:45;;;;;;;1.20;1.10;;;17.50;63.60;;;;;;5205893;28;20221;-62
2022/04/24 14:15:39;;;;;;;1.67;1.20;;;17.50;63.50;;;;;;5209117;28;20216;-62
2022/04/24 14:18:32;;;;;;;2.30;1.00;;;17.50;63.50;;;;;;5210631;28;20600;-62
2022/04/24 14:21:25;;;;;;;1.40;1.20;;;17.50;63.40;;;;;;5198485;28;20240;-60
2022/04/24 14:24:17;;;;;;;2.97;1.57;;;17.50;63.30;;;;;;5200284;28;20276;-61
2022/04/24 14:27:10;;;;;;;2.53;1.27;;;17.50;63.40;;;;;;5206986;28;20209;-60
2022/04/24 14:30:02;;;;;;;2.43;1.20;;;17.50;63.40;;;;;;5207718;28;20273;-60
2022/04/24 14:32:55;;;;;;;1.50;1.27;;;17.50;63.40;;;;;;5207033;28;20245;-58
2022/04/24 14:35:49;;;;;;;1.93;1.37;;;17.50;63.40;;;;;;5206266;28;20208;-60
2022/04/24 14:38:41;;;;;;;2.30;1.40;;;17.50;63.30;;;;;;5203362;28;20228;-60
2022/04/24 14:41:33;;;;;;;2.13;1.17;;;17.50;63.30;;;;;;5207544;28;20218;-61
2022/04/24 14:44:26;;;;;;;3.03;1.40;;;17.60;63.40;;;;;;5208171;28;20193;-60
2022/04/24 14:56:48;;;;;;;1.20;1.00;;;17.60;63.60;;;;;;5206845;28;20260;-60
2022/04/24 14:59:40;;;;;;;2.30;1.40;;;17.50;63.50;;;;;;5203925;28;20193;-60
2022/04/24 15:02:32;;;;;;;3.80;1.40;;;17.60;63.60;;;;;;5205831;28;20218;-61
2022/04/24 15:05:24;;;;;;;4.60;1.30;;;17.60;63.60;;;;;;5206070;28;20198;-60
2022/04/24 15:08:20;;;;;;;1.97;1.30;;;17.60;63.60;;;;;;5206154;28;20653;-60
2022/04/24 15:11:12;;;;;;;2.33;1.30;;;17.60;63.60;;;;;;5206819;28;20202;-61
2022/04/24 15:14:04;;;;;;;1.40;1.30;;;17.60;63.60;;;;;;5207371;28;20224;-61
2022/04/24 15:16:57;;;;;;;2.57;1.47;;;17.60;63.60;;;;;;5206318;28;20194;-60
2022/04/24 15:19:49;;;;;;;1.50;1.40;;;17.60;63.70;;;;;;5194129;28;20192;-59
2022/04/24 15:22:41;;;;;;;1.83;1.23;;;17.60;63.70;;;;;;5220145;23;20232;-64
2022/04/24 15:25:34;;;;;;;2.63;1.23;;;17.60;63.60;;;;;;5181886;28;20577;-64